sensor_id;sensor_type;location;lat;lon;timestamp;temperature;humidity
39095;DHT22;24840;47.508;19.376;2023-04-25T00:01:29;11.40;99.90
39095;DHT22;24840;47.508;19.376;2023-04-25T00:03:54;11.40;99.90
39095;DHT22;24840;47.508;19.376;2023-04-25T00:06:20;11.30;99.90
39095;DHT22;24840;47.508;19.376;2023-04-25T00:08:46;11.30;99.90
39095;DHT22;24840;47.508;19.376;2023-04-25T00:11:12;11.30;99.90
39095;DHT22;24840;47.508;19.376;2023-04-25T00:13:37;11.40;99.90
39095;DHT22;24840;47.508;19.376;2023-04-25T00:16:06;11.40;99.90
39095;DHT22;24840;47.508;19.376;2023-04-25T00:18:33;11.40;99.90
39095;DHT22;24840;47.508;19.376;2023-04-25T00:20:59;11.40;99.90
39095;DHT22;24840;47.508;19.376;2023-04-25T00:23:25;11.30;99.90
39095;DHT22;24840;47.508;19.376;2023-04-25T00:25:51;11.30;99.90
39095;DHT22;24840;47.508;19.376;2023-04-25T00:28:17;11.30;99.90
39095;DHT22;24840;47.508;19.376;2023-04-25T00:30:43;11.30;99.90
39095;DHT22;24840;47.508;19.376;2023-04-25T00:33:09;11.30;99.90
39095;DHT22;24840;47.508;19.376;2023-04-25T00:35:35;11.30;99.90
39095;DHT22;24840;47.508;19.376;2023-04-25T00:38:02;11.30;99.90
39095;DHT22;24840;47.508;19.376;2023-04-25T00:40:28;11.30;99.90
39095;DHT22;24840;47.508;19.376;2023-04-25T00:42:54;11.30;99.90
39095;DHT22;24840;47.508;19.376;2023-04-25T00:45:20;11.30;99.90
39095;DHT22;24840;47.508;19.376;2023-04-25T00:47:46;11.30;99.90
39095;DHT22;24840;47.508;19.376;2023-04-25T00:50:13;11.30;99.90
39095;DHT22;24840;47.508;19.376;2023-04-25T00:52:41;11.30;99.90
39095;DHT22;24840;47.508;19.376;2023-04-25T00:55:09;11.20;99.90
39095;DHT22;24840;47.508;19.376;2023-04-25T00:57:35;11.20;99.90
39095;DHT22;24840;47.508;19.376;2023-04-25T01:00:02;11.20;99.90
39095;DHT22;24840;47.508;19.376;2023-04-25T01:02:30;11.20;99.90
39095;DHT22;24840;47.508;19.376;2023-04-25T01:04:56;11.10;99.90
39095;DHT22;24840;47.508;19.376;2023-04-25T01:07:22;11.10;99.90
39095;DHT22;24840;47.508;19.376;2023-04-25T01:09:48;11.10;99.90
39095;DHT22;24840;47.508;19.376;2023-04-25T01:12:13;11.00;99.90
39095;DHT22;24840;47.508;19.376;2023-04-25T01:14:40;11.00;99.90
39095;DHT22;24840;47.508;19.376;2023-04-25T01:17:05;11.00;99.90
39095;DHT22;24840;47.508;19.376;2023-04-25T01:19:33;11.00;99.90
39095;DHT22;24840;47.508;19.376;2023-04-25T01:21:58;11.00;99.90
39095;DHT22;24840;47.508;19.376;2023-04-25T01:24:25;11.00;99.90
39095;DHT22;24840;47.508;19.376;2023-04-25T01:26:51;11.00;99.90
39095;DHT22;24840;47.508;19.376;2023-04-25T01:29:20;11.00;99.90
39095;DHT22;24840;47.508;19.376;2023-04-25T01:31:46;11.00;99.90
39095;DHT22;24840;47.508;19.376;2023-04-25T01:34:12;11.00;99.90
39095;DHT22;24840;47.508;19.376;2023-04-25T01:36:39;11.00;99.90
39095;DHT22;24840;47.508;19.376;2023-04-25T01:39:04;11.00;99.90
39095;DHT22;24840;47.508;19.376;2023-04-25T01:41:31;11.00;99.90
39095;DHT22;24840;47.508;19.376;2023-04-25T01:43:57;11.00;99.90
39095;DHT22;24840;47.508;19.376;2023-04-25T01:46:22;10.80;99.90
39095;DHT22;24840;47.508;19.376;2023-04-25T01:48:48;10.90;99.90
39095;DHT22;24840;47.508;19.376;2023-04-25T01:51:14;10.90;99.90
39095;DHT22;24840;47.508;19.376;2023-04-25T01:53:41;10.80;99.90
39095;DHT22;24840;47.508;19.376;2023-04-25T01:56:07;10.80;99.90
39095;DHT22;24840;47.508;19.376;2023-04-25T01:58:32;10.90;99.90
39095;DHT22;24840;47.508;19.376;2023-04-25T02:00:58;10.80;99.90
39095;DHT22;24840;47.508;19.376;2023-04-25T02:03:24;10.90;99.90
39095;DHT22;24840;47.508;19.376;2023-04-25T02:05:50;10.80;99.90
39095;DHT22;24840;47.508;19.376;2023-04-25T02:08:16;10.70;99.90
39095;DHT22;24840;47.508;19.376;2023-04-25T02:10:43;10.70;99.90
39095;DHT22;24840;47.508;19.376;2023-04-25T02:13:08;10.60;99.90
39095;DHT22;24840;47.508;19.376;2023-04-25T02:15:34;10.70;99.90
39095;DHT22;24840;47.508;19.376;2023-04-25T02:18:00;10.70;99.90
39095;DHT22;24840;47.508;19.376;2023-04-25T02:20:29;10.70;99.90
39095;DHT22;24840;47.508;19.376;2023-04-25T02:22:55;10.70;99.90
39095;DHT22;24840;47.508;19.376;2023-04-25T02:25:22;10.70;99.90
39095;DHT22;24840;47.508;19.376;2023-04-25T02:27:48;10.50;99.90
39095;DHT22;24840;47.508;19.376;2023-04-25T02:30:14;10.60;99.90
39095;DHT22;24840;47.508;19.376;2023-04-25T02:32:40;10.50;99.90
39095;DHT22;24840;47.508;19.376;2023-04-25T02:35:07;10.50;99.90
39095;DHT22;24840;47.508;19.376;2023-04-25T02:37:34;10.50;99.90
39095;DHT22;24840;47.508;19.376;2023-04-25T02:40:01;10.50;99.90
39095;DHT22;24840;47.508;19.376;2023-04-25T02:42:28;10.50;99.90
39095;DHT22;24840;47.508;19.376;2023-04-25T02:44:54;10.50;99.90
39095;DHT22;24840;47.508;19.376;2023-04-25T02:47:20;10.40;99.90
39095;DHT22;24840;47.508;19.376;2023-04-25T02:49:45;10.40;99.90
39095;DHT22;24840;47.508;19.376;2023-04-25T02:52:12;10.40;99.90
39095;DHT22;24840;47.508;19.376;2023-04-25T02:54:39;10.40;99.90
39095;DHT22;24840;47.508;19.376;2023-04-25T02:57:05;10.40;99.90
39095;DHT22;24840;47.508;19.376;2023-04-25T02:59:31;10.40;99.90
39095;DHT22;24840;47.508;19.376;2023-04-25T03:01:56;10.40;99.90
39095;DHT22;24840;47.508;19.376;2023-04-25T03:04:22;10.40;99.90
39095;DHT22;24840;47.508;19.376;2023-04-25T03:06:49;10.40;99.90
39095;DHT22;24840;47.508;19.376;2023-04-25T03:09:15;10.30;99.90
39095;DHT22;24840;47.508;19.376;2023-04-25T03:11:41;10.20;99.90
39095;DHT22;24840;47.508;19.376;2023-04-25T03:14:07;10.20;99.90
39095;DHT22;24840;47.508;19.376;2023-04-25T03:16:33;10.20;99.90
39095;DHT22;24840;47.508;19.376;2023-04-25T03:18:59;10.10;99.90
39095;DHT22;24840;47.508;19.376;2023-04-25T03:21:25;10.20;99.90
39095;DHT22;24840;47.508;19.376;2023-04-25T03:23:52;10.10;99.90
39095;DHT22;24840;47.508;19.376;2023-04-25T03:26:18;10.10;99.90
39095;DHT22;24840;47.508;19.376;2023-04-25T03:28:43;10.10;99.90
39095;DHT22;24840;47.508;19.376;2023-04-25T03:31:09;10.10;99.90
39095;DHT22;24840;47.508;19.376;2023-04-25T03:33:35;10.10;99.90
39095;DHT22;24840;47.508;19.376;2023-04-25T03:36:01;10.00;99.90
39095;DHT22;24840;47.508;19.376;2023-04-25T03:38:26;10.00;99.90
39095;DHT22;24840;47.508;19.376;2023-04-25T03:40:52;9.90;99.90
39095;DHT22;24840;47.508;19.376;2023-04-25T03:43:18;10.00;99.90
39095;DHT22;24840;47.508;19.376;2023-04-25T03:45:44;10.00;99.90
39095;DHT22;24840;47.508;19.376;2023-04-25T03:48:11;10.00;99.90
39095;DHT22;24840;47.508;19.376;2023-04-25T03:50:37;10.00;99.90
39095;DHT22;24840;47.508;19.376;2023-04-25T03:53:02;10.00;99.90
39095;DHT22;24840;47.508;19.376;2023-04-25T03:55:28;10.00;99.90
39095;DHT22;24840;47.508;19.376;2023-04-25T03:57:54;10.00;99.90
39095;DHT22;24840;47.508;19.376;2023-04-25T04:00:20;10.00;99.90
39095;DHT22;24840;47.508;19.376;2023-04-25T04:02:45;10.00;99.90
39095;DHT22;24840;47.508;19.376;2023-04-25T04:05:11;10.00;99.90
39095;DHT22;24840;47.508;19.376;2023-04-25T04:07:37;10.00;99.90
39095;DHT22;24840;47.508;19.376;2023-04-25T04:10:09;10.10;99.90
39095;DHT22;24840;47.508;19.376;2023-04-25T04:12:35;10.00;99.90
39095;DHT22;24840;47.508;19.376;2023-04-25T04:15:02;10.00;99.90
39095;DHT22;24840;47.508;19.376;2023-04-25T04:17:29;10.00;99.90
39095;DHT22;24840;47.508;19.376;2023-04-25T04:19:55;10.00;99.90
39095;DHT22;24840;47.508;19.376;2023-04-25T04:22:21;9.90;99.90
39095;DHT22;24840;47.508;19.376;2023-04-25T04:24:47;9.90;99.90
39095;DHT22;24840;47.508;19.376;2023-04-25T04:27:13;9.90;99.90
39095;DHT22;24840;47.508;19.376;2023-04-25T04:29:39;10.00;99.90
39095;DHT22;24840;47.508;19.376;2023-04-25T04:32:05;9.90;99.90
39095;DHT22;24840;47.508;19.376;2023-04-25T04:34:30;10.00;99.90
39095;DHT22;24840;47.508;19.376;2023-04-25T04:36:57;10.00;99.90
39095;DHT22;24840;47.508;19.376;2023-04-25T04:39:23;10.00;99.90
39095;DHT22;24840;47.508;19.376;2023-04-25T04:41:48;10.00;99.90
39095;DHT22;24840;47.508;19.376;2023-04-25T04:44:14;10.00;99.90
39095;DHT22;24840;47.508;19.376;2023-04-25T04:46:40;10.00;99.90
39095;DHT22;24840;47.508;19.376;2023-04-25T04:49:11;10.00;99.90
39095;DHT22;24840;47.508;19.376;2023-04-25T04:51:38;10.10;99.90
39095;DHT22;24840;47.508;19.376;2023-04-25T04:54:03;10.00;99.90
39095;DHT22;24840;47.508;19.376;2023-04-25T04:56:30;10.10;99.90
39095;DHT22;24840;47.508;19.376;2023-04-25T04:58:59;10.10;99.90
39095;DHT22;24840;47.508;19.376;2023-04-25T05:01:26;10.00;99.90
39095;DHT22;24840;47.508;19.376;2023-04-25T05:03:52;10.00;99.90
39095;DHT22;24840;47.508;19.376;2023-04-25T05:06:18;10.00;99.90
39095;DHT22;24840;47.508;19.376;2023-04-25T05:08:44;10.00;99.90
39095;DHT22;24840;47.508;19.376;2023-04-25T05:11:10;10.00;99.90
39095;DHT22;24840;47.508;19.376;2023-04-25T05:13:36;10.00;99.90
39095;DHT22;24840;47.508;19.376;2023-04-25T05:16:02;10.00;99.90
39095;DHT22;24840;47.508;19.376;2023-04-25T05:18:29;10.00;99.90
39095;DHT22;24840;47.508;19.376;2023-04-25T05:20:55;10.00;99.90
39095;DHT22;24840;47.508;19.376;2023-04-25T05:23:21;9.90;99.90
39095;DHT22;24840;47.508;19.376;2023-04-25T05:25:46;10.00;99.90
39095;DHT22;24840;47.508;19.376;2023-04-25T05:28:13;10.00;99.90
39095;DHT22;24840;47.508;19.376;2023-04-25T05:30:39;10.00;99.90
39095;DHT22;24840;47.508;19.376;2023-04-25T05:33:05;10.00;99.90
39095;DHT22;24840;47.508;19.376;2023-04-25T05:35:31;10.00;99.90
39095;DHT22;24840;47.508;19.376;2023-04-25T05:37:56;10.00;99.90
39095;DHT22;24840;47.508;19.376;2023-04-25T05:40:22;10.00;99.90
39095;DHT22;24840;47.508;19.376;2023-04-25T05:42:48;10.00;99.90
39095;DHT22;24840;47.508;19.376;2023-04-25T05:45:13;10.00;99.90
39095;DHT22;24840;47.508;19.376;2023-04-25T05:47:39;10.00;99.90
39095;DHT22;24840;47.508;19.376;2023-04-25T05:50:06;10.00;99.90
39095;DHT22;24840;47.508;19.376;2023-04-25T05:52:32;10.00;99.90
39095;DHT22;24840;47.508;19.376;2023-04-25T05:54:57;10.10;99.90
39095;DHT22;24840;47.508;19.376;2023-04-25T05:57:24;10.10;99.90
39095;DHT22;24840;47.508;19.376;2023-04-25T05:59:51;10.10;99.90
39095;DHT22;24840;47.508;19.376;2023-04-25T06:02:20;10.10;99.90
39095;DHT22;24840;47.508;19.376;2023-04-25T06:04:50;10.00;99.90
39095;DHT22;24840;47.508;19.376;2023-04-25T06:07:17;10.10;99.90
39095;DHT22;24840;47.508;19.376;2023-04-25T06:09:43;10.10;99.90
39095;DHT22;24840;47.508;19.376;2023-04-25T06:12:09;10.10;99.90
39095;DHT22;24840;47.508;19.376;2023-04-25T06:14:35;10.00;99.90
39095;DHT22;24840;47.508;19.376;2023-04-25T06:17:03;10.10;99.90
39095;DHT22;24840;47.508;19.376;2023-04-25T06:19:35;10.00;99.90
39095;DHT22;24840;47.508;19.376;2023-04-25T06:22:02;10.00;99.90
39095;DHT22;24840;47.508;19.376;2023-04-25T06:24:27;9.90;99.90
39095;DHT22;24840;47.508;19.376;2023-04-25T06:26:53;9.80;99.90
39095;DHT22;24840;47.508;19.376;2023-04-25T06:29:20;9.80;99.90
39095;DHT22;24840;47.508;19.376;2023-04-25T06:31:45;9.80;99.90
39095;DHT22;24840;47.508;19.376;2023-04-25T06:34:11;9.70;99.90
39095;DHT22;24840;47.508;19.376;2023-04-25T06:36:37;9.80;99.90
39095;DHT22;24840;47.508;19.376;2023-04-25T06:39:03;9.60;99.90
39095;DHT22;24840;47.508;19.376;2023-04-25T06:41:29;9.60;99.90
39095;DHT22;24840;47.508;19.376;2023-04-25T06:43:54;9.70;99.90
39095;DHT22;24840;47.508;19.376;2023-04-25T06:46:20;9.70;99.90
39095;DHT22;24840;47.508;19.376;2023-04-25T06:48:46;9.60;99.90
39095;DHT22;24840;47.508;19.376;2023-04-25T06:51:12;9.60;99.90
39095;DHT22;24840;47.508;19.376;2023-04-25T06:53:39;9.70;99.90
39095;DHT22;24840;47.508;19.376;2023-04-25T06:56:05;9.60;99.90
39095;DHT22;24840;47.508;19.376;2023-04-25T06:58:31;9.50;99.90
39095;DHT22;24840;47.508;19.376;2023-04-25T07:00:57;9.60;99.90
39095;DHT22;24840;47.508;19.376;2023-04-25T07:03:22;9.70;99.90
39095;DHT22;24840;47.508;19.376;2023-04-25T07:05:49;9.70;99.90
39095;DHT22;24840;47.508;19.376;2023-04-25T07:08:15;9.80;99.90
39095;DHT22;24840;47.508;19.376;2023-04-25T07:10:41;9.80;99.90
39095;DHT22;24840;47.508;19.376;2023-04-25T07:13:07;9.90;99.90
39095;DHT22;24840;47.508;19.376;2023-04-25T07:15:33;10.00;99.90
39095;DHT22;24840;47.508;19.376;2023-04-25T07:17:58;10.20;99.90
39095;DHT22;24840;47.508;19.376;2023-04-25T07:20:24;10.40;99.90
39095;DHT22;24840;47.508;19.376;2023-04-25T07:22:50;10.40;99.90
39095;DHT22;24840;47.508;19.376;2023-04-25T07:25:16;10.40;99.90
39095;DHT22;24840;47.508;19.376;2023-04-25T07:27:42;10.50;99.90
39095;DHT22;24840;47.508;19.376;2023-04-25T07:30:08;10.70;99.90
39095;DHT22;24840;47.508;19.376;2023-04-25T07:32:34;10.90;99.90
39095;DHT22;24840;47.508;19.376;2023-04-25T07:35:00;11.00;99.90
39095;DHT22;24840;47.508;19.376;2023-04-25T07:37:27;10.90;99.90
39095;DHT22;24840;47.508;19.376;2023-04-25T07:39:53;10.90;99.90
39095;DHT22;24840;47.508;19.376;2023-04-25T07:42:18;11.00;99.90
39095;DHT22;24840;47.508;19.376;2023-04-25T07:44:44;11.20;99.90
39095;DHT22;24840;47.508;19.376;2023-04-25T07:47:10;11.40;99.90
39095;DHT22;24840;47.508;19.376;2023-04-25T07:49:36;11.40;99.90
39095;DHT22;24840;47.508;19.376;2023-04-25T07:52:03;11.50;99.90
39095;DHT22;24840;47.508;19.376;2023-04-25T07:54:29;11.50;99.90
39095;DHT22;24840;47.508;19.376;2023-04-25T07:56:55;11.40;99.90
39095;DHT22;24840;47.508;19.376;2023-04-25T07:59:21;11.60;99.90
39095;DHT22;24840;47.508;19.376;2023-04-25T08:01:47;11.70;99.90
39095;DHT22;24840;47.508;19.376;2023-04-25T08:04:13;11.90;99.90
39095;DHT22;24840;47.508;19.376;2023-04-25T08:06:39;11.90;99.90
39095;DHT22;24840;47.508;19.376;2023-04-25T08:09:06;12.20;99.90
39095;DHT22;24840;47.508;19.376;2023-04-25T08:11:33;12.60;99.90
39095;DHT22;24840;47.508;19.376;2023-04-25T08:13:58;12.80;99.90
39095;DHT22;24840;47.508;19.376;2023-04-25T08:16:24;12.80;99.90
39095;DHT22;24840;47.508;19.376;2023-04-25T08:18:50;13.00;99.90
39095;DHT22;24840;47.508;19.376;2023-04-25T08:21:16;13.00;99.90
39095;DHT22;24840;47.508;19.376;2023-04-25T08:23:41;13.20;99.90
39095;DHT22;24840;47.508;19.376;2023-04-25T08:26:07;13.30;99.90
39095;DHT22;24840;47.508;19.376;2023-04-25T08:28:33;13.40;99.90
39095;DHT22;24840;47.508;19.376;2023-04-25T08:30:59;13.50;99.90
39095;DHT22;24840;47.508;19.376;2023-04-25T08:33:25;13.40;99.90
39095;DHT22;24840;47.508;19.376;2023-04-25T08:35:51;13.50;99.90
39095;DHT22;24840;47.508;19.376;2023-04-25T08:38:17;14.10;99.90
39095;DHT22;24840;47.508;19.376;2023-04-25T08:40:44;14.50;99.90
39095;DHT22;24840;47.508;19.376;2023-04-25T08:43:13;14.50;99.90
39095;DHT22;24840;47.508;19.376;2023-04-25T08:45:41;14.40;99.90
39095;DHT22;24840;47.508;19.376;2023-04-25T08:48:15;14.30;99.90
39095;DHT22;24840;47.508;19.376;2023-04-25T08:50:49;14.20;99.90
39095;DHT22;24840;47.508;19.376;2023-04-25T08:53:21;14.70;99.90
39095;DHT22;24840;47.508;19.376;2023-04-25T08:55:48;14.80;99.90
39095;DHT22;24840;47.508;19.376;2023-04-25T08:58:15;15.00;99.90
39095;DHT22;24840;47.508;19.376;2023-04-25T09:00:41;15.40;99.90
39095;DHT22;24840;47.508;19.376;2023-04-25T09:03:07;15.20;99.90
39095;DHT22;24840;47.508;19.376;2023-04-25T09:05:33;15.30;99.90
39095;DHT22;24840;47.508;19.376;2023-04-25T09:08:00;15.10;99.90
39095;DHT22;24840;47.508;19.376;2023-04-25T09:10:26;15.00;99.90
39095;DHT22;24840;47.508;19.376;2023-04-25T09:15:32;15.40;99.90
39095;DHT22;24840;47.508;19.376;2023-04-25T09:17:59;15.70;99.90
39095;DHT22;24840;47.508;19.376;2023-04-25T09:20:25;16.00;99.90
39095;DHT22;24840;47.508;19.376;2023-04-25T09:23:04;15.10;99.90
39095;DHT22;24840;47.508;19.376;2023-04-25T09:25:35;15.10;99.90
39095;DHT22;24840;47.508;19.376;2023-04-25T09:28:05;15.70;99.90
39095;DHT22;24840;47.508;19.376;2023-04-25T09:30:35;15.80;99.90
39095;DHT22;24840;47.508;19.376;2023-04-25T09:33:11;15.50;99.90
39095;DHT22;24840;47.508;19.376;2023-04-25T09:35:41;15.70;99.90
39095;DHT22;24840;47.508;19.376;2023-04-25T09:38:13;15.60;99.90
39095;DHT22;24840;47.508;19.376;2023-04-25T09:40:44;16.40;99.90
39095;DHT22;24840;47.508;19.376;2023-04-25T09:43:20;16.70;99.90
39095;DHT22;24840;47.508;19.376;2023-04-25T09:45:47;16.40;99.90
39095;DHT22;24840;47.508;19.376;2023-04-25T09:48:22;15.60;99.90
39095;DHT22;24840;47.508;19.376;2023-04-25T09:53:29;14.80;99.90
39095;DHT22;24840;47.508;19.376;2023-04-25T09:55:56;14.90;99.90
39095;DHT22;24840;47.508;19.376;2023-04-25T09:58:24;14.70;99.90
39095;DHT22;24840;47.508;19.376;2023-04-25T10:00:50;14.30;99.90
39095;DHT22;24840;47.508;19.376;2023-04-25T10:03:18;14.30;99.90
39095;DHT22;24840;47.508;19.376;2023-04-25T10:05:47;14.40;99.90
39095;DHT22;24840;47.508;19.376;2023-04-25T10:08:15;16.00;99.90
39095;DHT22;24840;47.508;19.376;2023-04-25T10:10:42;17.00;99.90
39095;DHT22;24840;47.508;19.376;2023-04-25T10:13:08;16.30;99.90
39095;DHT22;24840;47.508;19.376;2023-04-25T10:15:35;15.40;99.90
39095;DHT22;24840;47.508;19.376;2023-04-25T10:18:04;14.80;99.90
39095;DHT22;24840;47.508;19.376;2023-04-25T10:20:32;14.90;99.90
39095;DHT22;24840;47.508;19.376;2023-04-25T10:23:12;15.20;99.90
39095;DHT22;24840;47.508;19.376;2023-04-25T10:25:39;15.70;99.90
39095;DHT22;24840;47.508;19.376;2023-04-25T10:28:06;15.90;99.90
39095;DHT22;24840;47.508;19.376;2023-04-25T10:30:31;15.70;99.90
39095;DHT22;24840;47.508;19.376;2023-04-25T10:32:58;15.80;99.90
39095;DHT22;24840;47.508;19.376;2023-04-25T10:35:27;15.40;99.90
39095;DHT22;24840;47.508;19.376;2023-04-25T10:38:09;15.50;99.90
39095;DHT22;24840;47.508;19.376;2023-04-25T10:40:35;15.40;99.90
39095;DHT22;24840;47.508;19.376;2023-04-25T10:45:56;15.90;99.90
39095;DHT22;24840;47.508;19.376;2023-04-25T10:48:31;16.30;99.90
39095;DHT22;24840;47.508;19.376;2023-04-25T10:51:10;16.40;99.90
39095;DHT22;24840;47.508;19.376;2023-04-25T10:53:36;16.20;98.10
39095;DHT22;24840;47.508;19.376;2023-04-25T10:56:17;15.80;98.40
39095;DHT22;24840;47.508;19.376;2023-04-25T10:58:45;15.50;99.10
39095;DHT22;24840;47.508;19.376;2023-04-25T11:01:12;15.30;99.90
39095;DHT22;24840;47.508;19.376;2023-04-25T11:03:43;15.50;98.40
39095;DHT22;24840;47.508;19.376;2023-04-25T11:06:31;15.30;99.90
39095;DHT22;24840;47.508;19.376;2023-04-25T11:09:02;15.30;99.90
39095;DHT22;24840;47.508;19.376;2023-04-25T11:11:36;15.40;99.90
39095;DHT22;24840;47.508;19.376;2023-04-25T11:14:02;15.80;99.90
39095;DHT22;24840;47.508;19.376;2023-04-25T11:16:28;15.70;99.90
39095;DHT22;24840;47.508;19.376;2023-04-25T11:18:57;15.70;98.40
39095;DHT22;24840;47.508;19.376;2023-04-25T11:21:23;15.90;99.60
39095;DHT22;24840;47.508;19.376;2023-04-25T11:23:49;15.90;99.90
39095;DHT22;24840;47.508;19.376;2023-04-25T11:26:15;15.90;99.90
39095;DHT22;24840;47.508;19.376;2023-04-25T11:28:40;15.70;97.20
39095;DHT22;24840;47.508;19.376;2023-04-25T11:31:10;15.80;99.40
39095;DHT22;24840;47.508;19.376;2023-04-25T11:33:35;15.60;98.70
39095;DHT22;24840;47.508;19.376;2023-04-25T11:36:01;16.00;99.90
39095;DHT22;24840;47.508;19.376;2023-04-25T11:38:28;16.10;97.70
39095;DHT22;24840;47.508;19.376;2023-04-25T11:40:53;16.40;99.60
39095;DHT22;24840;47.508;19.376;2023-04-25T11:43:22;16.80;98.60
39095;DHT22;24840;47.508;19.376;2023-04-25T11:45:49;16.50;97.90
39095;DHT22;24840;47.508;19.376;2023-04-25T11:48:16;17.10;99.30
39095;DHT22;24840;47.508;19.376;2023-04-25T11:50:42;17.10;96.60
39095;DHT22;24840;47.508;19.376;2023-04-25T11:53:08;17.40;98.60
39095;DHT22;24840;47.508;19.376;2023-04-25T11:55:34;17.70;96.20
39095;DHT22;24840;47.508;19.376;2023-04-25T11:58:01;18.20;93.40
39095;DHT22;24840;47.508;19.376;2023-04-25T12:00:28;17.00;94.60
39095;DHT22;24840;47.508;19.376;2023-04-25T12:02:55;17.00;95.40
39095;DHT22;24840;47.508;19.376;2023-04-25T12:05:24;16.40;95.60
39095;DHT22;24840;47.508;19.376;2023-04-25T12:07:51;16.80;97.00
39095;DHT22;24840;47.508;19.376;2023-04-25T12:10:18;16.80;95.90
39095;DHT22;24840;47.508;19.376;2023-04-25T12:12:45;16.70;97.20
39095;DHT22;24840;47.508;19.376;2023-04-25T12:17:41;16.80;95.60
39095;DHT22;24840;47.508;19.376;2023-04-25T12:20:14;16.90;95.00
39095;DHT22;24840;47.508;19.376;2023-04-25T12:22:41;17.10;95.50
39095;DHT22;24840;47.508;19.376;2023-04-25T12:25:13;16.70;95.60
39095;DHT22;24840;47.508;19.376;2023-04-25T12:27:39;16.70;95.90
39095;DHT22;24840;47.508;19.376;2023-04-25T12:30:08;16.50;94.80
39095;DHT22;24840;47.508;19.376;2023-04-25T12:32:34;16.20;94.50
39095;DHT22;24840;47.508;19.376;2023-04-25T12:34:59;15.70;94.90
39095;DHT22;24840;47.508;19.376;2023-04-25T12:37:25;15.80;96.80
39095;DHT22;24840;47.508;19.376;2023-04-25T12:39:51;15.70;96.90
39095;DHT22;24840;47.508;19.376;2023-04-25T12:42:17;15.90;97.10
39095;DHT22;24840;47.508;19.376;2023-04-25T12:44:43;15.90;94.80
39095;DHT22;24840;47.508;19.376;2023-04-25T12:47:08;16.00;93.90
39095;DHT22;24840;47.508;19.376;2023-04-25T12:49:34;16.10;92.40
39095;DHT22;24840;47.508;19.376;2023-04-25T12:52:00;16.60;94.30
39095;DHT22;24840;47.508;19.376;2023-04-25T12:54:26;16.30;92.10
39095;DHT22;24840;47.508;19.376;2023-04-25T12:56:52;16.50;90.30
39095;DHT22;24840;47.508;19.376;2023-04-25T12:59:18;16.70;92.90
39095;DHT22;24840;47.508;19.376;2023-04-25T13:01:45;17.70;93.80
39095;DHT22;24840;47.508;19.376;2023-04-25T13:04:10;18.20;93.90
39095;DHT22;24840;47.508;19.376;2023-04-25T13:06:36;18.30;94.30
39095;DHT22;24840;47.508;19.376;2023-04-25T13:09:02;19.30;91.20
39095;DHT22;24840;47.508;19.376;2023-04-25T13:11:28;18.90;90.10
39095;DHT22;24840;47.508;19.376;2023-04-25T13:13:55;18.30;91.00
39095;DHT22;24840;47.508;19.376;2023-04-25T13:16:21;18.40;91.80
39095;DHT22;24840;47.508;19.376;2023-04-25T13:18:48;18.30;91.60
39095;DHT22;24840;47.508;19.376;2023-04-25T13:21:13;18.00;91.10
39095;DHT22;24840;47.508;19.376;2023-04-25T13:23:40;17.40;89.00
39095;DHT22;24840;47.508;19.376;2023-04-25T13:26:08;17.30;91.30
39095;DHT22;24840;47.508;19.376;2023-04-25T13:28:34;17.10;91.50
39095;DHT22;24840;47.508;19.376;2023-04-25T13:30:59;17.00;92.40
39095;DHT22;24840;47.508;19.376;2023-04-25T13:33:25;17.10;92.50
39095;DHT22;24840;47.508;19.376;2023-04-25T13:35:51;18.20;92.60
39095;DHT22;24840;47.508;19.376;2023-04-25T13:38:22;18.00;88.70
39095;DHT22;24840;47.508;19.376;2023-04-25T13:40:49;18.20;92.40
39095;DHT22;24840;47.508;19.376;2023-04-25T13:43:15;19.80;93.50
39095;DHT22;24840;47.508;19.376;2023-04-25T13:45:41;20.40;91.30
39095;DHT22;24840;47.508;19.376;2023-04-25T13:48:07;21.10;89.30
39095;DHT22;24840;47.508;19.376;2023-04-25T13:50:33;20.80;89.40
39095;DHT22;24840;47.508;19.376;2023-04-25T13:52:59;20.50;77.70
39095;DHT22;24840;47.508;19.376;2023-04-25T13:55:26;19.20;85.10
39095;DHT22;24840;47.508;19.376;2023-04-25T13:57:52;18.10;84.10
39095;DHT22;24840;47.508;19.376;2023-04-25T14:00:18;18.90;87.70
39095;DHT22;24840;47.508;19.376;2023-04-25T14:02:43;18.90;90.60
39095;DHT22;24840;47.508;19.376;2023-04-25T14:05:09;19.70;85.60
39095;DHT22;24840;47.508;19.376;2023-04-25T14:07:35;20.10;83.10
39095;DHT22;24840;47.508;19.376;2023-04-25T14:10:02;19.80;82.70
39095;DHT22;24840;47.508;19.376;2023-04-25T14:12:28;20.80;83.70
39095;DHT22;24840;47.508;19.376;2023-04-25T14:14:53;20.50;75.50
39095;DHT22;24840;47.508;19.376;2023-04-25T14:17:19;20.20;78.90
39095;DHT22;24840;47.508;19.376;2023-04-25T14:19:45;20.20;76.10
39095;DHT22;24840;47.508;19.376;2023-04-25T14:22:14;19.40;77.20
39095;DHT22;24840;47.508;19.376;2023-04-25T14:24:40;19.10;82.80
39095;DHT22;24840;47.508;19.376;2023-04-25T14:27:06;18.90;77.10
39095;DHT22;24840;47.508;19.376;2023-04-25T14:29:33;19.30;81.70
39095;DHT22;24840;47.508;19.376;2023-04-25T14:31:58;19.60;72.50
39095;DHT22;24840;47.508;19.376;2023-04-25T14:34:27;19.30;72.90
39095;DHT22;24840;47.508;19.376;2023-04-25T14:36:53;19.50;81.50
39095;DHT22;24840;47.508;19.376;2023-04-25T14:39:19;20.10;73.80
39095;DHT22;24840;47.508;19.376;2023-04-25T14:41:45;20.50;78.90
39095;DHT22;24840;47.508;19.376;2023-04-25T14:44:11;20.60;78.50
39095;DHT22;24840;47.508;19.376;2023-04-25T14:46:37;20.60;81.00
39095;DHT22;24840;47.508;19.376;2023-04-25T14:49:03;20.30;75.40
39095;DHT22;24840;47.508;19.376;2023-04-25T14:51:29;20.30;74.30
39095;DHT22;24840;47.508;19.376;2023-04-25T14:53:56;19.80;75.50
39095;DHT22;24840;47.508;19.376;2023-04-25T14:56:22;19.30;76.40
39095;DHT22;24840;47.508;19.376;2023-04-25T14:58:48;18.70;76.00
39095;DHT22;24840;47.508;19.376;2023-04-25T15:01:14;19.10;80.20
39095;DHT22;24840;47.508;19.376;2023-04-25T15:03:40;19.10;77.70
39095;DHT22;24840;47.508;19.376;2023-04-25T15:06:06;18.10;80.40
39095;DHT22;24840;47.508;19.376;2023-04-25T15:08:32;17.80;84.50
39095;DHT22;24840;47.508;19.376;2023-04-25T15:10:58;18.30;83.40
39095;DHT22;24840;47.508;19.376;2023-04-25T15:13:24;18.20;78.50
39095;DHT22;24840;47.508;19.376;2023-04-25T15:15:51;17.80;76.40
39095;DHT22;24840;47.508;19.376;2023-04-25T15:18:20;18.10;81.90
39095;DHT22;24840;47.508;19.376;2023-04-25T15:20:48;17.60;77.90
39095;DHT22;24840;47.508;19.376;2023-04-25T15:23:13;17.70;81.00
39095;DHT22;24840;47.508;19.376;2023-04-25T15:25:39;18.20;81.60